This is the latest recevied weather packets stored in our database for station/object DC4XK-10. If no packets are shown the sender has not sent any weather packets the latest 10 day(s).
| Time | Temp. | Humidity | Pressure | Rain* | Wind** | Luminosity | Snow |
|---|---|---|---|---|---|---|---|
| 1778133531 | 7.78° C | 89% | 1013 hPa | 0 mm | 0 m/s | - | - |
| 1778132932 | 7.22° C | 94% | 1013.2 hPa | 0 mm | 0 m/s | - | - |
| 1778132330 | 7.22° C | 94% | 1012.9 hPa | 0 mm | 0 m/s | - | - |
| 1778131731 | 6.67° C | 95% | 1012.7 hPa | 0 mm | 0 m/s | - | - |
| 1778131133 | 6.67° C | 96% | 1012.8 hPa | 0 mm | 0 m/s | - | - |
| 1778130530 | 6.11° C | 97% | 1012.6 hPa | 0 mm | 0 m/s | - | - |
| 1778129931 | 5.56° C | 98% | 1012.4 hPa | 0 mm | 0 m/s | - | - |
| 1778129334 | 5.56° C | 98% | 1012.4 hPa | 0 mm | 0 m/s | - | - |
| 1778128731 | 5° C | 97% | 1012.3 hPa | 0 mm | 0 m/s | - | - |
| 1778128130 | 5° C | 97% | 1012.1 hPa | 0 mm | 0 m/s | - | - |
| 1778127531 | 5.56° C | 97% | 1012.1 hPa | 0 mm | 0 m/s | - | - |
| 1778126931 | 5.56° C | 96% | 1012 hPa | 0 mm | 0 m/s | - | - |
| 1778126331 | 5.56° C | 95% | 1012 hPa | 0 mm | 0 m/s | - | - |
| 1778125730 | 6.11° C | 95% | 1012 hPa | 0 mm | 0 m/s | - | - |
| 1778125131 | 6.11° C | 94% | 1011.8 hPa | 0 mm | 0 m/s | - | - |
| 1778124531 | 6.67° C | 94% | 1011.9 hPa | 0 mm | 0 m/s | - | - |
| 1778107133 | 8.33° C | 88% | 1010.4 hPa | 0 mm | 0 m/s | - | - |
| 1778106531 | 8.33° C | 88% | 1010.2 hPa | 0 mm | 0 m/s | - | - |
| 1778105931 | 8.33° C | 88% | 1010.1 hPa | 0 mm | 0 m/s | - | - |
| 1778104731 | 8.33° C | 87% | 1010.3 hPa | 0 mm | 0 m/s | - | - |
| 1778103530 | 8.33° C | 87% | 1010.2 hPa | 0 mm | 0 m/s | - | - |
| 1778102931 | 8.33° C | 87% | 1010.2 hPa | 0 mm | 0 m/s | - | - |
| 1778102331 | 8.89° C | 87% | 1010 hPa | 0 mm | 0 m/s | - | - |
| 1778099930 | 8.89° C | 88% | 1009.6 hPa | 0 mm | 0 m/s | - | - |
| 1778099331 | 8.89° C | 89% | 1009.6 hPa | 0 mm | 0 m/s | - | - |
* Rain latest hour (hover to see other rain measurements)
** Current wind speed in m/s (hover to see current wind gust speed)